createdAt,value
2017-07-19T00:00:36.515Z,1001
2017-07-19T00:01:16.985Z,1001.01
2017-07-19T00:01:57.470Z,1001.03
2017-07-19T00:02:37.936Z,1001.02
2017-07-19T00:03:18.440Z,1001.04
2017-07-19T00:03:58.920Z,1001.02
2017-07-19T00:04:39.361Z,1001.02
2017-07-19T00:07:07.361Z,1001.04
2017-07-19T00:07:47.851Z,1001.01
2017-07-19T00:08:28.385Z,1001.02
2017-07-19T00:09:08.861Z,1001
2017-07-19T00:09:49.326Z,1000.99
2017-07-19T00:10:29.838Z,1001.03
2017-07-19T00:11:10.319Z,1001.03
2017-07-19T00:11:50.833Z,1001
2017-07-19T00:12:31.279Z,1001.04
2017-07-19T00:13:11.793Z,1001.01
2017-07-19T00:13:52.301Z,1001.05
2017-07-19T00:14:32.763Z,1000.99
2017-07-19T00:15:13.232Z,1001.02
2017-07-19T00:15:53.676Z,1001.04
2017-07-19T00:17:51.325Z,1001.04
2017-07-19T00:18:31.817Z,1001.03
2017-07-19T00:19:12.281Z,1001.06
2017-07-19T00:19:52.778Z,1001.07
2017-07-19T00:20:33.272Z,1001.06
2017-07-19T00:21:13.740Z,1001.09
2017-07-19T00:21:54.210Z,1001.04
2017-07-19T00:24:22.220Z,1001.02
2017-07-19T00:25:02.718Z,1001.04
2017-07-19T00:25:43.198Z,1001.01
2017-07-19T00:26:23.646Z,1001
2017-07-19T00:27:04.157Z,1000.96
2017-07-19T00:27:44.633Z,1000.99
2017-07-19T00:28:25.123Z,1001
2017-07-19T00:29:05.612Z,1001.01
2017-07-19T00:29:46.109Z,1001
2017-07-19T00:30:26.604Z,1001
2017-07-19T00:31:07.085Z,1000.95
2017-07-19T00:31:47.524Z,1000.95
2017-07-19T00:33:40.083Z,1000.97
2017-07-19T00:34:20.572Z,1000.97
2017-07-19T00:35:01.065Z,1000.98
2017-07-19T00:35:41.572Z,1000.96
2017-07-19T00:36:22.081Z,1000.95
2017-07-19T00:37:02.540Z,1000.94
2017-07-19T00:37:43.040Z,1000.97
2017-07-19T00:38:23.524Z,1000.96
2017-07-19T00:39:04.021Z,1000.98
2017-07-19T00:39:44.514Z,1000.98
2017-07-19T00:40:25.037Z,1000.99
2017-07-19T00:41:05.451Z,1000.97
2017-07-19T00:41:45.910Z,1000.95
2017-07-19T00:42:26.378Z,1000.96
2017-07-19T00:43:06.812Z,1000.97
2017-07-19T00:45:19.550Z,1000.96
2017-07-19T00:46:00.049Z,1000.96
2017-07-19T00:46:40.535Z,1000.95
2017-07-19T00:47:21.018Z,1000.95
2017-07-19T00:48:01.506Z,1000.95
2017-07-19T00:48:41.999Z,1000.96
2017-07-19T00:50:39.631Z,1000.99
2017-07-19T00:51:20.123Z,1000.96
2017-07-19T00:52:00.574Z,1000.98
2017-07-19T00:52:41.064Z,1000.98
2017-07-19T00:53:21.521Z,1000.99
2017-07-19T00:54:01.988Z,1000.94
2017-07-19T00:54:42.442Z,1000.96
2017-07-19T00:55:22.906Z,1000.95
2017-07-19T00:56:03.359Z,1000.97
2017-07-19T00:58:01.043Z,1000.98
2017-07-19T00:58:41.491Z,1000.95
2017-07-19T00:59:21.982Z,1000.93
2017-07-19T01:00:02.482Z,1000.96
2017-07-19T01:00:42.983Z,1000.98
2017-07-19T01:01:23.460Z,1000.95
2017-07-19T01:02:03.923Z,1000.96
2017-07-19T01:02:44.358Z,1000.95
2017-07-19T01:06:39.490Z,1000.92
2017-07-19T01:07:19.984Z,1000.98
2017-07-19T01:08:00.452Z,1000.96
2017-07-19T01:08:40.940Z,1001.02
2017-07-19T01:11:08.901Z,1001.03
2017-07-19T01:11:49.366Z,1001.08
2017-07-19T01:12:29.869Z,1001.07
2017-07-19T01:13:10.340Z,1001.06
2017-07-19T01:13:50.823Z,1001.07
2017-07-19T01:14:31.311Z,1001.07
2017-07-19T01:15:11.783Z,1001.07
2017-07-19T01:15:52.266Z,1001.07
2017-07-19T01:16:32.687Z,1001.05
2017-07-19T01:18:25.297Z,1001.03
2017-07-19T01:19:05.768Z,1001.04
2017-07-19T01:19:46.213Z,1001.05
2017-07-19T01:20:26.702Z,1001.05
2017-07-19T01:21:07.182Z,1001.05
2017-07-19T01:21:47.631Z,1001.06
2017-07-19T01:22:28.140Z,1001.08
2017-07-19T01:23:08.601Z,1001.06
2017-07-19T01:23:49.072Z,1001.08
2017-07-19T01:24:29.529Z,1001.09
2017-07-19T01:25:09.987Z,1001.1
2017-07-19T01:25:50.449Z,1001.11
2017-07-19T01:26:30.932Z,1001.1
2017-07-19T01:28:58.852Z,1001.12
2017-07-19T01:29:39.344Z,1001.1
2017-07-19T01:30:19.823Z,1001.09
2017-07-19T01:31:00.346Z,1001.11
2017-07-19T01:31:40.776Z,1001.12
2017-07-19T01:32:21.233Z,1001.13
2017-07-19T01:33:01.685Z,1001.13
2017-07-19T01:33:42.100Z,1001.09
2017-07-19T01:34:22.601Z,1001.11
2017-07-19T01:35:03.063Z,1001.13
2017-07-19T01:35:43.573Z,1001.1
2017-07-19T01:36:23.978Z,1001.13
2017-07-19T01:38:41.821Z,1001.08
2017-07-19T01:39:22.231Z,1001.05
2017-07-19T01:40:02.673Z,1001.07
2017-07-19T01:40:43.176Z,1001.06
2017-07-19T01:41:23.571Z,1001.09
2017-07-19T01:42:04.025Z,1001.03
2017-07-19T01:42:44.503Z,1001.05
2017-07-19T01:43:25.028Z,1001.02
2017-07-19T01:44:05.436Z,1001.05
2017-07-19T01:44:45.890Z,1001.05
2017-07-19T01:45:26.347Z,1001.04
2017-07-19T01:46:06.827Z,1001.03
2017-07-19T01:46:47.250Z,1001.06
2017-07-19T01:47:27.727Z,1001.02
2017-07-19T01:48:08.184Z,1000.97
2017-07-19T01:48:48.626Z,1001.02
2017-07-19T01:49:29.077Z,1001.04
2017-07-19T01:50:09.523Z,1001.02
2017-07-19T01:50:49.992Z,1001.05
2017-07-19T01:51:30.457Z,1001.03
2017-07-19T01:53:28.136Z,1001.03
2017-07-19T01:54:08.603Z,1001.01
2017-07-19T01:54:49.064Z,1001.02
2017-07-19T01:55:29.555Z,1001.04
2017-07-19T01:56:09.976Z,1001.02
2017-07-19T01:56:50.442Z,1001
2017-07-19T01:57:30.920Z,1001.02
2017-07-19T01:58:11.346Z,1001
2017-07-19T02:00:03.902Z,1001.01
2017-07-19T02:00:44.375Z,1001.05
2017-07-19T02:01:24.982Z,1001.03
2017-07-19T02:03:17.541Z,1001.07
2017-07-19T02:03:58.011Z,1001.04
2017-07-19T02:04:38.532Z,1001.06
2017-07-19T02:05:18.973Z,1001.07
2017-07-19T02:05:59.389Z,1001.1
2017-07-19T02:06:39.832Z,1001.12
2017-07-19T02:07:20.286Z,1001.11
2017-07-19T02:08:00.757Z,1001.08
2017-07-19T02:08:41.216Z,1001.1
2017-07-19T02:09:21.699Z,1001.09
2017-07-19T02:10:02.143Z,1001.08
2017-07-19T02:10:42.604Z,1001.1
2017-07-19T02:11:23.108Z,1001.12
2017-07-19T02:12:03.530Z,1001.11
2017-07-19T02:12:43.994Z,1001.12
2017-07-19T02:13:24.438Z,1001.1
2017-07-19T02:14:04.909Z,1001.14
2017-07-19T02:14:45.440Z,1001.12
2017-07-19T02:15:25.884Z,1001.11
2017-07-19T02:16:06.329Z,1001.12
2017-07-19T02:16:46.732Z,1001.12
2017-07-19T02:17:27.217Z,1001.08
2017-07-19T02:19:39.980Z,1001.09
2017-07-19T02:20:20.438Z,1001.1
2017-07-19T02:21:00.935Z,1001.11
2017-07-19T02:21:41.421Z,1001.1
2017-07-19T02:22:21.860Z,1001.11
2017-07-19T02:23:02.322Z,1001.08
2017-07-19T02:23:42.779Z,1001.09
2017-07-19T02:24:23.281Z,1001.09
2017-07-19T02:26:15.881Z,1001.04
2017-07-19T02:26:56.288Z,1001.07
2017-07-19T02:27:36.764Z,1001.07
2017-07-19T02:28:17.210Z,1001.05
2017-07-19T02:28:57.646Z,1001.07
2017-07-19T02:29:38.136Z,1001.08
2017-07-19T02:30:18.644Z,1001.08
2017-07-19T02:30:59.119Z,1001.12
2017-07-19T02:32:51.691Z,1001.15
2017-07-19T02:33:32.170Z,1001.17
2017-07-19T02:34:12.671Z,1001.17
2017-07-19T02:34:53.092Z,1001.17
2017-07-19T02:36:50.745Z,1001.14
2017-07-19T02:37:31.242Z,1001.13
2017-07-19T02:38:11.704Z,1001.11
2017-07-19T02:38:52.218Z,1001.15
2017-07-19T02:39:32.702Z,1001.13
2017-07-19T02:40:13.185Z,1001.13
2017-07-19T02:40:53.644Z,1001.09
2017-07-19T02:41:34.091Z,1001.13
2017-07-19T02:42:14.546Z,1001.11
2017-07-19T02:42:55.025Z,1001.09
2017-07-19T02:43:35.424Z,1001.04
2017-07-19T02:44:15.884Z,1001.08
2017-07-19T02:44:56.337Z,1001.1
2017-07-19T02:45:36.792Z,1001.08
2017-07-19T02:46:17.270Z,1001.1
2017-07-19T02:46:57.710Z,1001.09
2017-07-19T02:47:38.242Z,1001.09
2017-07-19T02:48:18.632Z,1001.09
2017-07-19T02:48:59.147Z,1001.07
2017-07-19T02:49:39.584Z,1001.07
2017-07-19T02:50:20.100Z,1001.11
2017-07-19T02:51:00.575Z,1001.09
2017-07-19T02:51:41.040Z,1001.12
2017-07-19T02:52:21.547Z,1001.07
2017-07-19T02:53:02.010Z,1001.15
2017-07-19T02:53:42.465Z,1001.11
2017-07-19T02:54:22.946Z,1001.11
2017-07-19T02:55:03.378Z,1001.12
2017-07-19T02:57:01.036Z,1001.16
2017-07-19T02:57:41.492Z,1001.15
2017-07-19T02:58:22.037Z,1001.17
2017-07-19T02:59:02.423Z,1001.17
2017-07-19T02:59:42.936Z,1001.18
2017-07-19T03:00:23.375Z,1001.15
2017-07-19T03:01:03.863Z,1001.16
2017-07-19T03:01:44.317Z,1001.21
2017-07-19T03:02:24.780Z,1001.21
2017-07-19T03:03:05.248Z,1001.19
2017-07-19T03:03:45.721Z,1001.23
2017-07-19T03:04:26.175Z,1001.24
2017-07-19T03:05:06.609Z,1001.25
2017-07-19T03:05:47.021Z,1001.28
2017-07-19T03:06:27.529Z,1001.27
2017-07-19T03:07:07.979Z,1001.29
2017-07-19T03:07:48.459Z,1001.25
2017-07-19T03:08:28.935Z,1001.23
2017-07-19T03:10:26.607Z,1001.3
2017-07-19T03:11:07.006Z,1001.3
2017-07-19T03:13:35.023Z,1001.29
2017-07-19T03:14:15.494Z,1001.32
2017-07-19T03:14:55.969Z,1001.31
2017-07-19T03:15:36.431Z,1001.29
2017-07-19T03:16:16.955Z,1001.31
2017-07-19T03:16:57.429Z,1001.29
2017-07-19T03:17:37.952Z,1001.32
2017-07-19T03:18:18.433Z,1001.3
2017-07-19T03:18:58.900Z,1001.33
2017-07-19T03:19:39.410Z,1001.33
2017-07-19T03:20:19.819Z,1001.34
2017-07-19T03:21:00.256Z,1001.33
2017-07-19T03:22:52.827Z,1001.34
2017-07-19T03:23:33.300Z,1001.36
2017-07-19T03:24:13.773Z,1001.42
2017-07-19T03:24:54.223Z,1001.4
2017-07-19T03:25:34.698Z,1001.4
2017-07-19T03:26:15.193Z,1001.41
2017-07-19T03:26:55.653Z,1001.41
2017-07-19T03:28:53.215Z,1001.47
2017-07-19T03:29:33.725Z,1001.45
2017-07-19T03:30:14.195Z,1001.44
2017-07-19T03:30:54.664Z,1001.43
2017-07-19T03:31:35.142Z,1001.45
2017-07-19T03:34:03.118Z,1001.47
2017-07-19T03:34:43.607Z,1001.51
2017-07-19T03:35:24.088Z,1001.51
2017-07-19T03:36:04.582Z,1001.53
2017-07-19T03:38:17.297Z,1001.55
2017-07-19T03:38:57.741Z,1001.56
2017-07-19T03:39:38.213Z,1001.57
2017-07-19T03:40:18.698Z,1001.55
2017-07-19T03:40:59.173Z,1001.54
2017-07-19T03:41:39.640Z,1001.57
2017-07-19T03:42:20.105Z,1001.56
2017-07-19T03:43:00.557Z,1001.53
2017-07-19T03:43:41.030Z,1001.53
2017-07-19T03:44:21.468Z,1001.52
2017-07-19T03:45:01.916Z,1001.54
2017-07-19T03:46:54.468Z,1001.51
2017-07-19T03:47:34.966Z,1001.49
2017-07-19T03:48:15.461Z,1001.54
2017-07-19T03:48:55.938Z,1001.52
2017-07-19T03:49:36.397Z,1001.52
2017-07-19T03:50:16.875Z,1001.53
2017-07-19T03:50:57.305Z,1001.52
2017-07-19T03:51:37.775Z,1001.53
2017-07-19T03:52:18.227Z,1001.53
2017-07-19T03:52:58.706Z,1001.54
2017-07-19T03:55:11.477Z,1001.52
2017-07-19T03:55:51.978Z,1001.55
2017-07-19T03:56:32.434Z,1001.51
2017-07-19T03:57:12.907Z,1001.53
2017-07-19T03:57:53.336Z,1001.55
2017-07-19T03:58:33.798Z,1001.55
2017-07-19T04:00:51.619Z,1001.59
2017-07-19T04:01:32.100Z,1001.58
2017-07-19T04:04:00.045Z,1001.58
2017-07-19T04:04:40.538Z,1001.53
2017-07-19T04:05:21.044Z,1001.53
2017-07-19T04:06:01.526Z,1001.51
2017-07-19T04:06:42.025Z,1001.5
2017-07-19T04:07:22.500Z,1001.55
2017-07-19T04:08:02.976Z,1001.52
2017-07-19T04:08:43.419Z,1001.54
2017-07-19T04:09:23.877Z,1001.53
2017-07-19T04:10:04.306Z,1001.54
2017-07-19T04:10:44.767Z,1001.47
2017-07-19T04:11:25.222Z,1001.49
2017-07-19T04:13:43.024Z,1001.49
2017-07-19T04:14:23.519Z,1001.49
2017-07-19T04:15:03.972Z,1001.46
2017-07-19T04:15:44.422Z,1001.46
2017-07-19T04:16:24.900Z,1001.45
2017-07-19T04:17:05.339Z,1001.47
2017-07-19T04:17:45.823Z,1001.43
2017-07-19T04:18:26.288Z,1001.44
2017-07-19T04:19:06.717Z,1001.48
2017-07-19T04:19:47.194Z,1001.47
2017-07-19T04:22:05.077Z,1001.48
2017-07-19T04:22:45.564Z,1001.49
2017-07-19T04:23:25.993Z,1001.48
2017-07-19T04:24:06.453Z,1001.47
2017-07-19T04:24:46.921Z,1001.49
2017-07-19T04:25:27.388Z,1001.51
2017-07-19T04:26:07.948Z,1001.51
2017-07-19T04:26:48.403Z,1001.54
2017-07-19T04:27:28.899Z,1001.56
2017-07-19T04:28:09.387Z,1001.58
2017-07-19T04:28:49.828Z,1001.6
2017-07-19T04:29:30.283Z,1001.61
2017-07-19T04:30:10.863Z,1001.58
2017-07-19T04:30:51.390Z,1001.59
2017-07-19T04:32:49.077Z,1001.58
2017-07-19T04:33:29.541Z,1001.56
2017-07-19T04:34:10.005Z,1001.59
2017-07-19T04:34:50.484Z,1001.6
2017-07-19T04:35:30.946Z,1001.58
2017-07-19T04:37:58.869Z,1001.63
2017-07-19T04:38:39.346Z,1001.62
2017-07-19T04:39:19.829Z,1001.62
2017-07-19T04:40:00.316Z,1001.61
2017-07-19T04:40:40.802Z,1001.62
2017-07-19T04:41:21.263Z,1001.63
2017-07-19T04:42:01.751Z,1001.65
2017-07-19T04:42:42.163Z,1001.61
2017-07-19T04:43:22.620Z,1001.6
2017-07-19T04:44:03.107Z,1001.64
2017-07-19T04:46:20.931Z,1001.62
2017-07-19T04:47:01.418Z,1001.63
2017-07-19T04:47:41.881Z,1001.6
2017-07-19T04:48:22.387Z,1001.63
2017-07-19T04:49:02.835Z,1001.62
2017-07-19T04:50:55.399Z,1001.6
2017-07-19T04:51:35.864Z,1001.59
2017-07-19T04:52:16.415Z,1001.56
2017-07-19T04:54:14.100Z,1001.6
2017-07-19T04:54:54.537Z,1001.58
2017-07-19T04:55:34.999Z,1001.63
2017-07-19T04:57:32.628Z,1001.68
2017-07-19T04:58:13.106Z,1001.68
2017-07-19T05:00:13.167Z,1001.72
2017-07-19T05:00:53.639Z,1001.75
2017-07-19T05:01:34.103Z,1001.75
2017-07-19T05:02:14.544Z,1001.78
2017-07-19T05:02:55.014Z,1001.74
2017-07-19T05:03:35.505Z,1001.76
2017-07-19T05:04:15.930Z,1001.78
2017-07-19T05:04:56.364Z,1001.81
2017-07-19T05:06:48.951Z,1001.8
2017-07-19T05:07:29.383Z,1001.79
2017-07-19T05:08:09.902Z,1001.75
2017-07-19T05:08:50.320Z,1001.77
2017-07-19T05:09:30.809Z,1001.74
2017-07-19T05:10:11.288Z,1001.71
2017-07-19T05:10:51.773Z,1001.74
2017-07-19T05:11:32.249Z,1001.73
2017-07-19T05:12:12.703Z,1001.68
2017-07-19T05:12:53.155Z,1001.67
2017-07-19T05:13:33.607Z,1001.67
2017-07-19T05:15:46.392Z,1001.6
2017-07-19T05:16:26.910Z,1001.64
2017-07-19T05:17:07.309Z,1001.66
2017-07-19T05:17:47.749Z,1001.66
2017-07-19T05:18:28.222Z,1001.65
2017-07-19T05:19:08.661Z,1001.67
2017-07-19T05:21:06.332Z,1001.65
2017-07-19T05:21:46.742Z,1001.63
2017-07-19T05:22:27.210Z,1001.65
2017-07-19T05:23:07.678Z,1001.65
2017-07-19T05:23:48.140Z,1001.67
2017-07-19T05:24:28.581Z,1001.64
2017-07-19T05:26:46.400Z,1001.72
2017-07-19T05:27:26.907Z,1001.72
2017-07-19T05:28:07.327Z,1001.69
2017-07-19T05:28:47.739Z,1001.72
2017-07-19T05:29:28.183Z,1001.7
2017-07-19T05:30:08.679Z,1001.73
2017-07-19T05:30:49.145Z,1001.71
2017-07-19T05:31:29.631Z,1001.68
2017-07-19T05:32:10.086Z,1001.7
2017-07-19T05:32:50.542Z,1001.71
2017-07-19T05:33:31.053Z,1001.7
2017-07-19T05:34:11.520Z,1001.73
2017-07-19T05:36:09.236Z,1001.76
2017-07-19T05:36:49.673Z,1001.75
2017-07-19T05:37:30.117Z,1001.78
2017-07-19T05:38:10.588Z,1001.77
2017-07-19T05:38:51.831Z,1001.77
2017-07-19T05:39:32.312Z,1001.81
2017-07-19T05:40:12.750Z,1001.81
2017-07-19T05:40:53.220Z,1001.83
2017-07-19T05:41:33.679Z,1001.86
2017-07-19T05:43:46.379Z,1001.85
2017-07-19T05:44:26.870Z,1001.86
2017-07-19T05:45:07.368Z,1001.85
2017-07-19T05:47:05.002Z,1001.86
2017-07-19T05:47:45.493Z,1001.85
2017-07-19T05:48:25.899Z,1001.85
2017-07-19T05:50:23.586Z,1001.86
2017-07-19T05:51:04.081Z,1001.81
2017-07-19T05:51:44.551Z,1001.88
2017-07-19T05:52:25.016Z,1001.86
2017-07-19T05:53:05.424Z,1001.84
2017-07-19T05:53:45.909Z,1001.82
2017-07-19T05:54:26.329Z,1001.84
2017-07-19T05:55:06.803Z,1001.86
2017-07-19T05:55:47.254Z,1001.87
2017-07-19T05:56:27.717Z,1001.86
2017-07-19T05:57:08.189Z,1001.85
2017-07-19T05:57:48.606Z,1001.88
2017-07-19T05:59:41.171Z,1001.9
2017-07-19T06:00:21.659Z,1001.92
2017-07-19T06:01:03.023Z,1001.9
2017-07-19T06:01:43.473Z,1001.96
2017-07-19T06:03:36.123Z,1001.89
2017-07-19T06:04:16.585Z,1001.91
2017-07-19T06:04:57.099Z,1001.92
2017-07-19T06:06:49.692Z,1001.93
2017-07-19T06:07:30.138Z,1001.94
2017-07-19T06:08:10.599Z,1001.98
2017-07-19T06:08:51.029Z,1002.01
2017-07-19T06:09:31.530Z,1001.98
2017-07-19T06:10:11.961Z,1001.94
2017-07-19T06:10:52.397Z,1001.91
2017-07-19T06:11:32.881Z,1001.97
2017-07-19T06:12:13.339Z,1001.95
2017-07-19T06:12:53.828Z,1001.95
2017-07-19T06:13:34.305Z,1001.95
2017-07-19T06:14:14.716Z,1002.01
2017-07-19T06:16:32.548Z,1002.01
2017-07-19T06:17:13.026Z,1002.01
2017-07-19T06:17:53.526Z,1002.01
2017-07-19T06:18:34.017Z,1002.02
2017-07-19T06:19:14.519Z,1002.01
2017-07-19T06:19:55.003Z,1002.02
2017-07-19T06:20:35.471Z,1002.02
2017-07-19T06:21:15.935Z,1002.03
2017-07-19T06:21:56.393Z,1002.04
2017-07-19T06:22:36.843Z,1002.06
2017-07-19T06:24:29.801Z,1002.12
2017-07-19T06:25:10.187Z,1002.13
2017-07-19T06:25:50.639Z,1002.15
2017-07-19T06:26:31.103Z,1002.19
2017-07-19T06:27:11.545Z,1002.18
2017-07-19T06:27:52.047Z,1002.21
2017-07-19T06:28:32.464Z,1002.25
2017-07-19T06:29:12.929Z,1002.26
2017-07-19T06:29:53.373Z,1002.24
2017-07-19T06:30:33.850Z,1002.24
2017-07-19T06:31:14.255Z,1002.27
2017-07-19T06:31:54.762Z,1002.27
2017-07-19T06:32:35.196Z,1002.27
2017-07-19T06:33:15.637Z,1002.28
2017-07-19T06:33:56.130Z,1002.27
2017-07-19T06:34:36.684Z,1002.29
2017-07-19T06:35:17.116Z,1002.23
2017-07-19T06:35:57.576Z,1002.25
2017-07-19T06:36:38.042Z,1002.24
2017-07-19T06:37:18.483Z,1002.28
2017-07-19T06:37:58.927Z,1002.31
2017-07-19T06:38:39.376Z,1002.27
2017-07-19T06:39:19.858Z,1002.29
2017-07-19T06:40:00.409Z,1002.24
2017-07-19T06:40:40.907Z,1002.27
2017-07-19T06:41:21.381Z,1002.24
2017-07-19T06:42:01.831Z,1002.29
2017-07-19T06:42:42.330Z,1002.28
2017-07-19T06:43:22.792Z,1002.23
2017-07-19T06:44:03.285Z,1002.23
2017-07-19T06:44:43.813Z,1002.22
2017-07-19T06:45:24.331Z,1002.23
2017-07-19T06:46:04.796Z,1002.25
2017-07-19T06:46:45.318Z,1002.25
2017-07-19T06:47:25.733Z,1002.23
2017-07-19T06:48:06.221Z,1002.23
2017-07-19T06:48:46.621Z,1002.23
2017-07-19T06:50:39.200Z,1002.19
2017-07-19T06:51:19.698Z,1002.18
2017-07-19T06:52:00.210Z,1002.17
2017-07-19T06:52:40.666Z,1002.12
2017-07-19T06:53:21.261Z,1002.12
2017-07-19T06:54:01.699Z,1002.11
2017-07-19T06:54:42.177Z,1002.11
2017-07-19T06:55:22.668Z,1002.15
2017-07-19T06:56:03.133Z,1002.09
2017-07-19T06:56:43.593Z,1002.11
2017-07-19T06:57:24.055Z,1002.17
2017-07-19T06:58:04.536Z,1002.17
2017-07-19T06:58:45.713Z,1002.18
2017-07-19T06:59:25.737Z,1002.18
2017-07-19T07:00:06.466Z,1002.17
2017-07-19T07:00:47.160Z,1002.16
2017-07-19T07:01:28.592Z,1002.18
2017-07-19T07:02:09.111Z,1002.18
2017-07-19T07:02:49.585Z,1002.21
2017-07-19T07:03:30.007Z,1002.17
2017-07-19T07:04:10.481Z,1002.15
2017-07-19T07:04:51.155Z,1002.14
2017-07-19T07:05:31.537Z,1002.15
2017-07-19T07:06:12.003Z,1002.15
2017-07-19T07:06:52.460Z,1002.11
2017-07-19T07:07:32.923Z,1002.14
2017-07-19T07:08:13.401Z,1002.1
2017-07-19T07:08:53.892Z,1002.11
2017-07-19T07:09:34.336Z,1002.06
2017-07-19T07:10:14.803Z,1002.07
2017-07-19T07:10:55.283Z,1002.08
2017-07-19T07:11:35.720Z,1002.06
2017-07-19T07:12:16.230Z,1002.05
2017-07-19T07:12:56.641Z,1002.06
2017-07-19T07:13:37.093Z,1002.05
2017-07-19T07:14:17.622Z,1002.05
2017-07-19T07:14:58.084Z,1002.04
2017-07-19T07:15:38.559Z,1002.07
2017-07-19T07:16:19.047Z,1002.1
2017-07-19T07:16:59.489Z,1002.07
2017-07-19T07:17:39.934Z,1002.1
2017-07-19T07:18:20.392Z,1002.15
2017-07-19T07:19:00.901Z,1002.16
2017-07-19T07:19:41.385Z,1002.17
2017-07-19T07:20:21.869Z,1002.17
2017-07-19T07:21:02.341Z,1002.2
2017-07-19T07:21:43.516Z,1002.16
2017-07-19T07:22:23.969Z,1002.19
2017-07-19T07:23:04.397Z,1002.21
2017-07-19T07:23:44.884Z,1002.19
2017-07-19T07:26:12.857Z,1002.21
2017-07-19T07:26:53.350Z,1002.21
2017-07-19T07:27:33.859Z,1002.27
2017-07-19T07:28:14.370Z,1002.22
2017-07-19T07:28:54.893Z,1002.24
2017-07-19T07:29:35.325Z,1002.2
2017-07-19T07:30:15.836Z,1002.19
2017-07-19T07:30:56.331Z,1002.21
2017-07-19T07:31:36.870Z,1002.21
2017-07-19T07:32:17.383Z,1002.15
2017-07-19T07:32:57.923Z,1002.15
2017-07-19T07:35:10.774Z,1002.15
2017-07-19T07:35:51.219Z,1002.1
2017-07-19T07:36:31.692Z,1002.11
2017-07-19T07:37:12.195Z,1002.09
2017-07-19T07:37:52.702Z,1002.06
2017-07-19T07:38:33.186Z,1002.06
2017-07-19T07:39:13.666Z,1002.04
2017-07-19T07:39:54.142Z,1002.06
2017-07-19T07:40:34.671Z,1002.03
2017-07-19T07:41:15.238Z,1002.04
2017-07-19T07:41:55.709Z,1002.04
2017-07-19T07:42:36.162Z,1002.04
2017-07-19T07:43:16.645Z,1002.07
2017-07-19T07:45:29.385Z,1002.1
2017-07-19T07:46:09.838Z,1002.08
2017-07-19T07:46:50.351Z,1002.05
2017-07-19T07:47:30.869Z,1002.06
2017-07-19T07:48:11.334Z,1002.06
2017-07-19T07:48:51.792Z,1002.06
2017-07-19T07:49:32.280Z,1002.04
2017-07-19T07:50:12.729Z,1002.04
2017-07-19T07:50:53.177Z,1002.04
2017-07-19T07:52:50.839Z,1001.99
2017-07-19T07:53:31.415Z,1002.01
2017-07-19T07:54:11.895Z,1002.02
2017-07-19T07:54:52.386Z,1002.03
2017-07-19T07:57:05.211Z,1001.96
2017-07-19T07:57:45.815Z,1001.99
2017-07-19T07:58:26.481Z,1001.94
2017-07-19T08:00:39.344Z,1001.92
2017-07-19T08:01:19.885Z,1001.91
2017-07-19T08:02:00.422Z,1001.88
2017-07-19T08:02:40.969Z,1001.84
2017-07-19T08:03:21.469Z,1001.84
2017-07-19T08:04:01.960Z,1001.82
2017-07-19T08:04:42.512Z,1001.82
2017-07-19T08:05:23.088Z,1001.84
2017-07-19T08:07:20.700Z,1001.83
2017-07-19T08:08:01.139Z,1001.86
2017-07-19T08:08:41.640Z,1001.87
2017-07-19T08:09:22.118Z,1001.9
2017-07-19T08:10:02.644Z,1001.83
2017-07-19T08:10:43.192Z,1001.85
2017-07-19T08:12:55.922Z,1001.82
2017-07-19T08:13:36.393Z,1001.87
2017-07-19T08:14:16.891Z,1001.81
2017-07-19T08:14:57.389Z,1001.81
2017-07-19T08:15:37.911Z,1001.82
2017-07-19T08:16:18.407Z,1001.79
2017-07-19T08:16:58.830Z,1001.8
2017-07-19T08:17:39.330Z,1001.77
2017-07-19T08:18:19.799Z,1001.81
2017-07-19T08:20:17.744Z,1001.76
2017-07-19T08:20:58.289Z,1001.8
2017-07-19T08:21:38.898Z,1001.77
2017-07-19T08:22:19.378Z,1001.8
2017-07-19T08:22:59.891Z,1001.77
2017-07-19T08:23:40.376Z,1001.79
2017-07-19T08:24:20.798Z,1001.77
2017-07-19T08:25:01.300Z,1001.78
2017-07-19T08:25:41.769Z,1001.76
2017-07-19T08:26:22.320Z,1001.74
2017-07-19T08:27:02.799Z,1001.78
2017-07-19T08:27:44.164Z,1001.75
2017-07-19T08:28:24.626Z,1001.75
2017-07-19T08:29:05.178Z,1001.75
2017-07-19T08:29:45.696Z,1001.68
2017-07-19T08:30:26.205Z,1001.67
2017-07-19T08:32:18.822Z,1001.68
2017-07-19T08:32:59.247Z,1001.7
2017-07-19T08:33:39.732Z,1001.65
2017-07-19T08:34:20.219Z,1001.65
2017-07-19T08:35:00.792Z,1001.67
2017-07-19T08:35:41.298Z,1001.71
2017-07-19T08:36:21.841Z,1001.71
2017-07-19T08:38:34.707Z,1001.67
2017-07-19T08:39:15.141Z,1001.63
2017-07-19T08:39:55.693Z,1001.65
2017-07-19T08:40:36.183Z,1001.7
2017-07-19T08:41:16.685Z,1001.65
2017-07-19T08:43:09.316Z,1001.66
2017-07-19T08:43:49.791Z,1001.68
2017-07-19T08:44:30.314Z,1001.68
2017-07-19T08:45:10.810Z,1001.68
2017-07-19T08:45:51.305Z,1001.68
2017-07-19T08:46:31.858Z,1001.68
2017-07-19T08:47:12.436Z,1001.67
2017-07-19T08:47:52.983Z,1001.66
2017-07-19T08:48:33.541Z,1001.66
2017-07-19T08:49:14.075Z,1001.68
2017-07-19T08:49:54.555Z,1001.63
2017-07-19T08:50:35.049Z,1001.63
2017-07-19T08:52:52.910Z,1001.56
2017-07-19T08:53:33.454Z,1001.52
2017-07-19T08:54:14.588Z,1001.5
2017-07-19T08:54:55.097Z,1001.49
2017-07-19T08:55:35.598Z,1001.53
2017-07-19T08:56:16.122Z,1001.51
2017-07-19T08:56:56.579Z,1001.51
2017-07-19T08:57:37.105Z,1001.54
2017-07-19T08:59:49.820Z,1001.56
2017-07-19T09:00:30.404Z,1001.56
2017-07-19T09:01:10.887Z,1001.52
2017-07-19T09:01:51.366Z,1001.55
2017-07-19T09:02:31.910Z,1001.58
2017-07-19T09:03:12.381Z,1001.52
2017-07-19T09:03:52.836Z,1001.55
2017-07-19T09:04:33.353Z,1001.55
2017-07-19T09:05:13.800Z,1001.51
2017-07-19T09:05:54.263Z,1001.54
2017-07-19T09:08:07.035Z,1001.55
2017-07-19T09:08:47.541Z,1001.59
2017-07-19T09:09:28.056Z,1001.56
2017-07-19T09:10:08.532Z,1001.58
2017-07-19T09:10:49.024Z,1001.6
2017-07-19T09:11:29.541Z,1001.58
2017-07-19T09:12:10.077Z,1001.57
2017-07-19T09:12:50.690Z,1001.6
2017-07-19T09:13:31.219Z,1001.61
2017-07-19T09:14:11.734Z,1001.6
2017-07-19T09:14:52.222Z,1001.59
2017-07-19T09:15:32.695Z,1001.59
2017-07-19T09:16:13.232Z,1001.56
2017-07-19T09:16:53.662Z,1001.6
2017-07-19T09:17:34.130Z,1001.62
2017-07-19T09:18:14.634Z,1001.59
2017-07-19T09:20:27.387Z,1001.51
2017-07-19T09:21:07.871Z,1001.54
2017-07-19T09:21:48.472Z,1001.5
2017-07-19T09:22:29.053Z,1001.55
2017-07-19T09:23:10.325Z,1001.53
2017-07-19T09:23:50.906Z,1001.54
2017-07-19T09:24:31.375Z,1001.51
2017-07-19T09:26:49.236Z,1001.43
2017-07-19T09:27:29.780Z,1001.44
2017-07-19T09:28:10.310Z,1001.46
2017-07-19T09:28:50.763Z,1001.46
2017-07-19T09:29:31.262Z,1001.46
2017-07-19T09:31:23.917Z,1001.54
2017-07-19T09:32:04.452Z,1001.47
2017-07-19T09:32:44.996Z,1001.43
2017-07-19T09:33:25.454Z,1001.46
2017-07-19T09:34:05.969Z,1001.49
2017-07-19T09:34:46.461Z,1001.49
2017-07-19T09:35:26.996Z,1001.48
2017-07-19T09:36:08.160Z,1001.42
2017-07-19T09:36:48.632Z,1001.42
2017-07-19T09:37:29.176Z,1001.42
2017-07-19T09:38:09.749Z,1001.5
2017-07-19T09:38:50.294Z,1001.5
2017-07-19T09:39:30.839Z,1001.47
2017-07-19T09:40:11.275Z,1001.5
2017-07-19T09:42:08.911Z,1001.45
2017-07-19T09:42:49.450Z,1001.42
2017-07-19T09:43:29.907Z,1001.42
2017-07-19T09:44:10.487Z,1001.38
2017-07-19T09:44:51.067Z,1001.43
2017-07-19T09:45:31.651Z,1001.42
2017-07-19T09:46:12.155Z,1001.43
2017-07-19T09:46:52.647Z,1001.47
2017-07-19T09:47:33.174Z,1001.47
2017-07-19T09:48:13.664Z,1001.44
2017-07-19T09:48:54.152Z,1001.44
2017-07-19T09:49:34.633Z,1001.53
2017-07-19T09:50:15.122Z,1001.56
2017-07-19T09:50:55.622Z,1001.6
2017-07-19T09:51:36.090Z,1001.64
2017-07-19T09:52:16.589Z,1001.58
2017-07-19T09:52:57.073Z,1001.59
2017-07-19T09:53:37.563Z,1001.6
2017-07-19T09:55:30.228Z,1001.69
2017-07-19T09:56:10.787Z,1001.73
2017-07-19T09:56:51.308Z,1001.73
2017-07-19T09:57:31.855Z,1001.68